This is the latest recevied weather packets stored in our database for station/object OE6CBX-1. If no packets are shown the sender has not sent any weather packets the latest 10 day(s).
| Time | Temp. | Humidity | Pressure | Rain* | Wind** | Luminosity | Snow |
|---|---|---|---|---|---|---|---|
| 1777274990 | 22.22° C | 21% | 984.9 hPa | - | - | - | - |
| 1777274090 | 20.56° C | 23% | 985 hPa | - | - | - | - |
| 1777273190 | 24.44° C | 20% | 985 hPa | - | - | - | - |
| 1777272290 | 22.22° C | 23% | 985.2 hPa | - | - | - | - |
| 1777271390 | 18.89° C | 29% | 985.3 hPa | - | - | - | - |
| 1777270490 | 17.22° C | 32% | 985.5 hPa | - | - | - | - |
| 1777269590 | 16.11° C | 35% | 985.6 hPa | - | - | - | - |
| 1777268690 | 15° C | 36% | 985.7 hPa | - | - | - | - |
| 1777267790 | 13.89° C | 38% | 985.7 hPa | - | - | - | - |
| 1777266890 | 13.33° C | 40% | 985.6 hPa | - | - | - | - |
| 1777265990 | 12.22° C | 42% | 985.7 hPa | - | - | - | - |
| 1777265090 | 11.11° C | 43% | 985.6 hPa | - | - | - | - |
| 1777264190 | 11.11° C | 42% | 985.5 hPa | - | - | - | - |
| 1777263290 | 11.11° C | 43% | 985.5 hPa | - | - | - | - |
| 1777262390 | 11.11° C | 42% | 985.5 hPa | - | - | - | - |
| 1777261490 | 11.67° C | 41% | 985.4 hPa | - | - | - | - |
| 1777260589 | 11.67° C | 40% | 985.4 hPa | - | - | - | - |
| 1777259689 | 11.67° C | 40% | 985.4 hPa | - | - | - | - |
| 1777258789 | 12.22° C | 39% | 985.4 hPa | - | - | - | - |
| 1777257889 | 12.22° C | 38% | 985.5 hPa | - | - | - | - |
| 1777256989 | 12.78° C | 39% | 985.6 hPa | - | - | - | - |
| 1777256089 | 12.78° C | 38% | 985.5 hPa | - | - | - | - |
| 1777255189 | 12.78° C | 38% | 985.5 hPa | - | - | - | - |
| 1777254289 | 12.78° C | 39% | 985.7 hPa | - | - | - | - |
| 1777253389 | 12.78° C | 39% | 985.8 hPa | - | - | - | - |
* Rain since midnight (hover to see other rain measurements)
** Current wind speed in m/s (hover to see current wind gust speed)